createdAt,value
2023-03-05T00:01:18.028Z,25.50
2023-03-05T00:03:47.677Z,25.70
2023-03-05T00:06:17.347Z,25.90
2023-03-05T00:08:45.680Z,25.60
2023-03-05T00:11:14.254Z,25.70
2023-03-05T00:13:42.350Z,25.70
2023-03-05T00:16:13.071Z,26.00
2023-03-05T00:18:41.438Z,25.60
2023-03-05T00:21:21.105Z,25.40
2023-03-05T00:23:50.594Z,25.70
2023-03-05T00:26:19.020Z,25.80
2023-03-05T00:28:49.884Z,25.60
2023-03-05T00:31:18.501Z,25.60
2023-03-05T00:33:46.843Z,25.70
2023-03-05T00:36:16.134Z,25.70
2023-03-05T00:38:44.071Z,25.50
2023-03-05T00:41:12.079Z,25.50
2023-03-05T00:43:40.034Z,25.60
2023-03-05T00:46:08.236Z,25.80
2023-03-05T00:48:36.336Z,25.70
2023-03-05T00:51:04.808Z,25.40
2023-03-05T00:53:34.177Z,25.40
2023-03-05T00:56:02.114Z,25.60
2023-03-05T00:58:30.465Z,25.60
2023-03-05T01:01:02.829Z,25.50
2023-03-05T01:03:31.838Z,25.80
2023-03-05T01:06:00.964Z,25.40
2023-03-05T01:08:29.570Z,25.40
2023-03-05T01:10:59.113Z,25.60
2023-03-05T01:13:27.169Z,25.90
2023-03-05T01:15:55.276Z,26.00
2023-03-05T01:18:23.397Z,25.70
2023-03-05T01:20:51.493Z,25.60
2023-03-05T01:23:19.538Z,25.80
2023-03-05T01:25:47.550Z,25.70
2023-03-05T01:28:16.898Z,25.80
2023-03-05T01:30:44.939Z,25.40
2023-03-05T01:33:12.950Z,25.80
2023-03-05T01:35:40.997Z,25.50
2023-03-05T01:38:09.054Z,25.50
2023-03-05T01:40:37.074Z,25.60
2023-03-05T01:43:24.134Z,25.70
2023-03-05T01:46:31.496Z,25.60
2023-03-05T01:49:22.450Z,25.70
2023-03-05T01:51:58.939Z,25.90
2023-03-05T01:54:33.642Z,26.00
2023-03-05T01:57:09.681Z,25.70
2023-03-05T01:59:42.753Z,25.70
2023-03-05T02:02:11.011Z,25.50
2023-03-05T02:04:44.778Z,25.50
2023-03-05T02:07:13.956Z,25.50
2023-03-05T02:09:42.554Z,25.30
2023-03-05T02:12:12.829Z,25.70
2023-03-05T02:14:46.251Z,25.80
2023-03-05T02:17:14.461Z,25.60
2023-03-05T02:19:51.860Z,25.50
2023-03-05T02:22:23.901Z,25.60
2023-03-05T02:24:52.554Z,25.70
2023-03-05T02:27:27.168Z,25.70
2023-03-05T02:29:55.148Z,25.60
2023-03-05T02:32:23.318Z,25.70
2023-03-05T02:34:51.317Z,25.90
2023-03-05T02:37:20.618Z,25.70
2023-03-05T02:39:48.591Z,25.40
2023-03-05T02:42:16.570Z,25.90
2023-03-05T02:44:44.561Z,25.70
2023-03-05T02:47:12.525Z,25.70
2023-03-05T02:49:40.560Z,26.40
2023-03-05T02:52:09.099Z,25.70
2023-03-05T02:54:38.380Z,25.70
2023-03-05T02:57:06.425Z,25.70
2023-03-05T02:59:34.470Z,26.10
2023-03-05T03:02:02.515Z,25.80
2023-03-05T03:04:30.461Z,25.90
2023-03-05T03:06:58.430Z,26.00
2023-03-05T03:09:26.771Z,25.90
2023-03-05T03:11:56.149Z,25.60
2023-03-05T03:14:24.223Z,25.90
2023-03-05T03:16:52.264Z,26.00
2023-03-05T03:19:20.327Z,25.80
2023-03-05T03:21:49.863Z,26.00
2023-03-05T03:24:17.844Z,25.90
2023-03-05T03:26:46.408Z,25.70
2023-03-05T03:29:15.727Z,25.90
2023-03-05T03:31:45.513Z,25.30
2023-03-05T03:34:15.009Z,25.90
2023-03-05T03:36:43.805Z,25.90
2023-03-05T03:39:12.301Z,26.00
2023-03-05T03:41:43.966Z,26.40
2023-03-05T03:44:12.063Z,25.80
2023-03-05T03:46:42.181Z,25.60
2023-03-05T03:49:15.708Z,25.60
2023-03-05T03:51:43.859Z,25.90
2023-03-05T03:54:12.029Z,25.80
2023-03-05T03:56:40.045Z,25.90
2023-03-05T03:59:08.107Z,25.70
2023-03-05T04:01:36.774Z,25.70
2023-03-05T04:04:07.113Z,25.90
2023-03-05T04:06:36.021Z,25.90
2023-03-05T04:09:04.776Z,25.70
2023-03-05T04:11:32.892Z,25.50
2023-03-05T04:14:00.931Z,25.70
2023-03-05T04:16:29.007Z,25.70
2023-03-05T04:18:56.998Z,25.60
2023-03-05T04:21:26.637Z,25.80
2023-03-05T04:23:54.644Z,25.90
2023-03-05T04:26:22.667Z,25.70
2023-03-05T04:28:50.775Z,25.40
2023-03-05T04:31:20.520Z,25.20
2023-03-05T04:33:48.625Z,25.30
2023-03-05T04:36:16.659Z,25.70
2023-03-05T04:38:46.080Z,26.10
2023-03-05T04:41:14.047Z,25.90
2023-03-05T04:43:42.024Z,25.90
2023-03-05T04:46:09.979Z,25.80
2023-03-05T04:48:37.958Z,25.90
2023-03-05T04:51:06.638Z,25.90
2023-03-05T04:53:35.229Z,26.00
2023-03-05T04:56:05.106Z,25.40
2023-03-05T04:58:33.137Z,25.60
2023-03-05T05:01:05.870Z,26.00
2023-03-05T05:03:34.778Z,25.70
2023-03-05T05:06:03.261Z,25.60
2023-03-05T05:08:31.295Z,25.90
2023-03-05T05:11:03.153Z,26.00
2023-03-05T05:13:33.769Z,25.80
2023-03-05T05:16:02.326Z,25.20
2023-03-05T05:18:30.402Z,25.70
2023-03-05T05:20:58.367Z,26.00
2023-03-05T05:23:26.367Z,25.10
2023-03-05T05:25:58.960Z,26.00
2023-03-05T05:28:27.542Z,26.10
2023-03-05T05:30:57.473Z,26.00
2023-03-05T05:33:26.601Z,25.70
2023-03-05T05:35:54.612Z,25.80
2023-03-05T05:38:22.669Z,25.90
2023-03-05T05:40:50.705Z,26.00
2023-03-05T05:43:18.712Z,25.90
2023-03-05T05:45:46.782Z,25.80
2023-03-05T05:48:16.164Z,25.70
2023-03-05T05:50:44.165Z,25.90
2023-03-05T05:53:12.118Z,25.80
2023-03-05T05:55:41.423Z,25.90
2023-03-05T05:58:09.416Z,25.90
2023-03-05T06:00:37.430Z,25.90
2023-03-05T06:03:05.766Z,25.90
2023-03-05T06:05:35.495Z,26.00
2023-03-05T06:08:03.483Z,25.90
2023-03-05T06:10:31.470Z,25.90
2023-03-05T06:12:59.426Z,25.90
2023-03-05T06:15:27.449Z,25.90
2023-03-05T06:17:55.478Z,26.10
2023-03-05T06:20:23.538Z,25.90
2023-03-05T06:22:52.896Z,26.00
2023-03-05T06:25:21.246Z,26.00
2023-03-05T06:27:49.250Z,26.10
2023-03-05T06:30:17.612Z,25.80
2023-03-05T06:32:45.635Z,25.80
2023-03-05T06:35:14.067Z,25.90
2023-03-05T06:37:42.067Z,25.80
2023-03-05T06:40:13.982Z,25.90
2023-03-05T06:42:42.009Z,25.90
2023-03-05T06:45:11.732Z,26.00
2023-03-05T06:47:39.853Z,25.90
2023-03-05T06:50:08.908Z,26.00
2023-03-05T06:52:38.718Z,26.10
2023-03-05T06:55:07.238Z,25.30
2023-03-05T06:57:37.610Z,25.90
2023-03-05T07:00:09.240Z,25.70
2023-03-05T07:02:38.570Z,25.90
2023-03-05T07:05:08.470Z,25.70
2023-03-05T07:07:36.775Z,25.80
2023-03-05T07:10:07.405Z,25.80
2023-03-05T07:12:38.652Z,25.80
2023-03-05T07:15:08.323Z,25.10
2023-03-05T07:17:36.562Z,25.80
2023-03-05T07:20:05.912Z,25.70
2023-03-05T07:22:33.914Z,25.80
2023-03-05T07:25:01.921Z,25.90
2023-03-05T07:27:29.851Z,26.00
2023-03-05T07:29:59.398Z,25.90
2023-03-05T07:32:27.429Z,25.50
2023-03-05T07:34:55.462Z,25.50
2023-03-05T07:37:23.445Z,25.70
2023-03-05T07:39:51.612Z,25.90
2023-03-05T07:42:19.585Z,25.80
2023-03-05T07:44:47.836Z,25.60
2023-03-05T07:47:17.215Z,25.60
2023-03-05T07:49:45.221Z,25.90
2023-03-05T07:52:13.160Z,25.80
2023-03-05T07:54:41.276Z,25.90
2023-03-05T07:57:12.343Z,25.80
2023-03-05T07:59:40.739Z,25.80
2023-03-05T08:02:08.803Z,25.60
2023-03-05T08:04:38.445Z,25.70
2023-03-05T08:07:06.714Z,25.60
2023-03-05T08:09:34.788Z,25.50
2023-03-05T08:12:02.783Z,25.60
2023-03-05T08:14:30.741Z,26.20
2023-03-05T08:16:58.689Z,25.90
2023-03-05T08:19:26.668Z,25.70
2023-03-05T08:21:56.523Z,25.70
2023-03-05T08:24:29.304Z,25.50
2023-03-05T08:26:58.107Z,25.70
2023-03-05T08:29:27.277Z,25.60
2023-03-05T08:31:55.701Z,25.60
2023-03-05T08:34:23.757Z,25.60
2023-03-05T08:36:52.238Z,25.70
2023-03-05T08:39:21.514Z,25.50
2023-03-05T08:41:49.470Z,25.70
2023-03-05T08:44:17.444Z,25.60
2023-03-05T08:46:45.504Z,25.60
2023-03-05T08:49:13.525Z,25.60
2023-03-05T08:51:41.518Z,25.50
2023-03-05T08:54:10.799Z,25.70
2023-03-05T08:56:40.214Z,25.40
2023-03-05T08:59:08.785Z,25.20
2023-03-05T09:01:36.781Z,25.50
2023-03-05T09:04:05.039Z,25.70
2023-03-05T09:06:34.387Z,25.30
2023-03-05T09:09:02.353Z,25.40
2023-03-05T09:11:30.400Z,25.60
2023-03-05T09:13:59.734Z,25.40
2023-03-05T09:16:28.536Z,25.20
2023-03-05T09:18:56.554Z,25.20
2023-03-05T09:21:24.548Z,25.30
2023-03-05T09:23:52.803Z,25.40
2023-03-05T09:26:21.141Z,25.40
2023-03-05T09:28:49.603Z,25.50
2023-03-05T09:31:19.360Z,25.50
2023-03-05T09:33:49.727Z,25.40
2023-03-05T09:36:24.302Z,24.90
2023-03-05T09:38:53.011Z,24.40
2023-03-05T09:41:34.339Z,24.40
2023-03-05T09:44:14.235Z,24.60
2023-03-05T09:46:54.652Z,25.00
2023-03-05T09:49:33.737Z,24.50
2023-03-05T09:52:08.893Z,24.50
2023-03-05T09:54:43.085Z,24.90
2023-03-05T09:57:18.587Z,24.70
2023-03-05T09:59:50.981Z,25.00
2023-03-05T10:02:27.625Z,25.10
2023-03-05T10:05:01.570Z,24.90
2023-03-05T10:07:33.649Z,24.80
2023-03-05T10:10:05.115Z,24.90
2023-03-05T10:12:42.703Z,24.60
2023-03-05T10:15:15.118Z,25.10
2023-03-05T10:18:00.129Z,25.00
2023-03-05T10:20:57.785Z,25.40
2023-03-05T10:23:34.362Z,24.90
2023-03-05T10:26:19.168Z,25.00
2023-03-05T10:28:59.223Z,24.90
2023-03-05T10:31:55.082Z,24.90
2023-03-05T10:34:57.159Z,24.50
2023-03-05T10:38:01.429Z,25.00
2023-03-05T10:40:33.639Z,25.00
2023-03-05T10:43:16.323Z,25.00
2023-03-05T10:45:46.822Z,25.40
2023-03-05T10:48:26.716Z,25.20
2023-03-05T10:51:02.173Z,25.10
2023-03-05T10:53:35.452Z,25.20
2023-03-05T10:56:04.938Z,25.30
2023-03-05T10:58:33.769Z,25.20
2023-03-05T11:01:05.997Z,25.10
2023-03-05T11:03:54.956Z,25.20
2023-03-05T11:06:35.442Z,25.10
2023-03-05T11:09:20.503Z,25.00
2023-03-05T11:12:15.726Z,25.50
2023-03-05T11:14:46.797Z,25.00
2023-03-05T11:17:32.350Z,25.30
2023-03-05T11:20:35.029Z,25.30
2023-03-05T11:23:13.110Z,25.40
2023-03-05T11:26:02.062Z,25.20
2023-03-05T11:28:34.833Z,25.00
2023-03-05T11:31:21.983Z,24.90
2023-03-05T11:34:00.306Z,25.10
2023-03-05T11:36:31.953Z,25.30
2023-03-05T11:39:15.641Z,25.10
2023-03-05T11:41:49.552Z,24.70
2023-03-05T11:44:24.590Z,24.40
2023-03-05T11:46:57.851Z,24.40
2023-03-05T11:49:30.007Z,24.50
2023-03-05T11:52:06.760Z,25.00
2023-03-05T11:54:49.575Z,24.70
2023-03-05T11:57:19.306Z,25.10
2023-03-05T11:59:47.595Z,24.60
2023-03-05T12:02:22.118Z,24.70
2023-03-05T12:04:51.083Z,25.00
2023-03-05T12:07:23.822Z,25.10
2023-03-05T12:09:54.710Z,24.90
2023-03-05T12:12:40.844Z,25.10
2023-03-05T12:15:41.742Z,24.80
2023-03-05T12:18:22.121Z,25.20
2023-03-05T12:21:03.776Z,24.60
2023-03-05T12:23:47.497Z,24.60
2023-03-05T12:26:17.409Z,24.70
2023-03-05T12:29:01.205Z,24.90
2023-03-05T12:31:39.670Z,24.90
2023-03-05T12:34:48.065Z,24.70
2023-03-05T12:37:59.199Z,24.90
2023-03-05T12:40:29.476Z,24.90
2023-03-05T12:43:01.768Z,25.00
2023-03-05T12:45:37.801Z,25.10
2023-03-05T12:48:46.266Z,24.80
2023-03-05T12:51:39.604Z,25.00
2023-03-05T12:54:33.973Z,24.80
2023-03-05T12:57:04.332Z,25.20
2023-03-05T12:59:45.197Z,24.90
2023-03-05T13:02:24.739Z,25.20
2023-03-05T13:04:58.774Z,25.00
2023-03-05T13:07:26.892Z,24.80
2023-03-05T13:09:57.512Z,24.60
2023-03-05T13:12:29.053Z,24.60
2023-03-05T13:15:03.373Z,24.80
2023-03-05T13:17:44.362Z,24.60
2023-03-05T13:20:34.908Z,25.00
2023-03-05T13:23:22.505Z,24.90
2023-03-05T13:26:04.208Z,25.20
2023-03-05T13:28:33.824Z,25.00
2023-03-05T13:31:12.161Z,25.00
2023-03-05T13:33:40.516Z,24.80
2023-03-05T13:36:09.042Z,25.30
2023-03-05T13:38:40.469Z,25.50
2023-03-05T13:41:24.314Z,24.90
2023-03-05T13:43:55.049Z,25.10
2023-03-05T13:46:31.951Z,24.90
2023-03-05T13:49:20.346Z,24.90
2023-03-05T13:51:51.825Z,24.90
2023-03-05T13:54:21.970Z,24.80
2023-03-05T13:56:56.436Z,25.60
2023-03-05T13:59:28.113Z,25.10
2023-03-05T14:01:59.298Z,25.00
2023-03-05T14:04:30.538Z,25.10
2023-03-05T14:07:03.397Z,24.90
2023-03-05T14:09:43.153Z,24.90
2023-03-05T14:12:28.011Z,25.30
2023-03-05T14:14:57.382Z,24.60
2023-03-05T14:17:40.680Z,24.60
2023-03-05T14:20:22.974Z,25.00
2023-03-05T14:22:53.740Z,25.00
2023-03-05T14:25:36.372Z,25.00
2023-03-05T14:28:07.359Z,25.20
2023-03-05T14:30:36.384Z,25.20
2023-03-05T14:33:06.272Z,24.90
2023-03-05T14:35:34.439Z,25.00
2023-03-05T14:38:02.570Z,25.10
2023-03-05T14:40:33.758Z,24.40
2023-03-05T14:43:03.088Z,25.10
2023-03-05T14:45:33.844Z,25.30
2023-03-05T14:48:06.424Z,25.20
2023-03-05T14:50:37.446Z,24.90
2023-03-05T14:53:10.407Z,24.80
2023-03-05T14:55:39.159Z,24.90
2023-03-05T14:58:14.597Z,25.20
2023-03-05T15:00:43.201Z,25.20
2023-03-05T15:03:13.883Z,25.20
2023-03-05T15:05:42.655Z,25.10
2023-03-05T15:08:16.092Z,25.20
2023-03-05T15:10:44.213Z,25.20
2023-03-05T15:13:18.386Z,25.30
2023-03-05T15:15:48.472Z,25.40
2023-03-05T15:18:20.559Z,25.30
2023-03-05T15:20:51.807Z,25.40
2023-03-05T15:23:20.468Z,25.20
2023-03-05T15:25:48.522Z,25.30
2023-03-05T15:28:16.722Z,25.30
2023-03-05T15:30:47.830Z,25.40
2023-03-05T15:33:18.824Z,25.30
2023-03-05T15:35:46.954Z,25.20
2023-03-05T15:38:15.230Z,25.30
2023-03-05T15:40:44.133Z,25.40
2023-03-05T15:43:12.179Z,25.40
2023-03-05T15:45:40.361Z,25.40
2023-03-05T15:48:08.579Z,25.40
2023-03-05T15:50:42.219Z,25.50
2023-03-05T15:53:13.272Z,25.40
2023-03-05T15:55:43.350Z,25.40
2023-03-05T15:58:16.861Z,25.30
2023-03-05T16:00:47.255Z,25.40
2023-03-05T16:03:15.376Z,25.70
2023-03-05T16:05:45.048Z,25.60
2023-03-05T16:08:13.550Z,25.50
2023-03-05T16:10:41.701Z,25.40
2023-03-05T16:13:14.300Z,25.40
2023-03-05T16:15:44.240Z,25.50
2023-03-05T16:18:15.397Z,25.40
2023-03-05T16:20:44.841Z,25.30
2023-03-05T16:23:12.783Z,25.30
2023-03-05T16:25:40.848Z,25.40
2023-03-05T16:28:10.395Z,25.50
2023-03-05T16:30:39.810Z,25.70
2023-03-05T16:33:07.837Z,25.60
2023-03-05T16:35:35.907Z,25.40
2023-03-05T16:38:06.969Z,25.50
2023-03-05T16:41:02.914Z,25.80
2023-03-05T16:43:26.174Z,25.70
2023-03-05T16:45:54.192Z,25.80
2023-03-05T16:48:22.176Z,25.50
2023-03-05T16:50:50.208Z,25.60
2023-03-05T16:53:20.159Z,25.70
2023-03-05T16:55:48.126Z,25.60
2023-03-05T16:58:16.146Z,26.00
2023-03-05T17:00:44.166Z,25.70
2023-03-05T17:03:12.148Z,25.60
2023-03-05T17:05:40.175Z,25.90
2023-03-05T17:08:08.532Z,25.70
2023-03-05T17:10:37.914Z,25.70
2023-03-05T17:13:06.034Z,25.70
2023-03-05T17:15:34.260Z,25.30
2023-03-05T17:18:02.749Z,25.50
2023-03-05T17:20:30.874Z,25.40
2023-03-05T17:22:58.793Z,25.60
2023-03-05T17:25:26.801Z,25.90
2023-03-05T17:27:56.118Z,25.60
2023-03-05T17:30:24.362Z,25.70
2023-03-05T17:32:54.528Z,25.60
2023-03-05T17:35:23.835Z,25.50
2023-03-05T17:37:55.124Z,25.60
2023-03-05T17:40:24.599Z,25.70
2023-03-05T17:42:52.695Z,25.60
2023-03-05T17:45:22.166Z,25.90
2023-03-05T17:47:50.208Z,25.50
2023-03-05T17:50:19.586Z,25.90
2023-03-05T17:52:48.050Z,25.70
2023-03-05T17:55:17.644Z,26.10
2023-03-05T17:57:47.487Z,25.50
2023-03-05T18:00:18.752Z,25.20
2023-03-05T18:02:48.358Z,25.80
2023-03-05T18:05:17.452Z,25.90
2023-03-05T18:07:45.593Z,25.70
2023-03-05T18:10:16.357Z,26.00
2023-03-05T18:12:44.815Z,25.90
2023-03-05T18:15:15.811Z,26.10
2023-03-05T18:17:44.288Z,26.10
2023-03-05T18:20:26.418Z,25.90
2023-03-05T18:22:55.097Z,25.70
2023-03-05T18:25:25.698Z,25.80
2023-03-05T18:27:54.058Z,25.90
2023-03-05T18:30:22.359Z,25.70
2023-03-05T18:32:51.273Z,25.70
2023-03-05T18:35:20.826Z,25.30
2023-03-05T18:37:49.037Z,25.80
2023-03-05T18:40:21.503Z,26.00
2023-03-05T18:42:50.346Z,25.80
2023-03-05T18:45:20.461Z,25.90
2023-03-05T18:47:49.074Z,25.40
2023-03-05T18:50:19.956Z,25.80
2023-03-05T18:52:48.810Z,26.10
2023-03-05T18:55:18.647Z,25.40
2023-03-05T18:57:46.919Z,25.90
2023-03-05T19:00:17.703Z,26.10
2023-03-05T19:02:45.746Z,25.90
2023-03-05T19:05:15.328Z,26.00
2023-03-05T19:07:45.279Z,25.80
2023-03-05T19:10:15.745Z,25.90
2023-03-05T19:13:28.610Z,25.60
2023-03-05T19:15:56.680Z,26.00
2023-03-05T19:19:15.188Z,26.00
2023-03-05T19:21:44.925Z,26.10
2023-03-05T19:24:14.811Z,26.00
2023-03-05T19:26:43.487Z,26.40
2023-03-05T19:29:12.273Z,26.00
2023-03-05T19:31:40.444Z,26.00
2023-03-05T19:34:09.091Z,26.10
2023-03-05T19:36:37.086Z,26.20
2023-03-05T19:39:06.051Z,26.10
2023-03-05T19:41:36.071Z,26.00
2023-03-05T19:44:04.808Z,26.00
2023-03-05T19:46:33.487Z,25.90
2023-03-05T19:49:01.465Z,25.90
2023-03-05T19:51:29.496Z,26.00
2023-03-05T19:53:57.509Z,25.30
2023-03-05T19:56:25.613Z,25.80
2023-03-05T19:58:54.890Z,26.10
2023-03-05T20:01:26.143Z,26.00
2023-03-05T20:03:56.274Z,26.10
2023-03-05T20:06:25.530Z,25.80
2023-03-05T20:08:54.185Z,25.80
2023-03-05T20:11:23.016Z,25.70
2023-03-05T20:13:51.895Z,26.20
2023-03-05T20:16:23.334Z,26.00
2023-03-05T20:18:52.960Z,26.00
2023-03-05T20:21:23.180Z,25.90
2023-03-05T20:23:51.404Z,25.90
2023-03-05T20:26:20.332Z,25.90
2023-03-05T20:28:49.781Z,26.00
2023-03-05T20:31:21.884Z,25.90
2023-03-05T20:33:50.601Z,26.30
2023-03-05T20:36:19.098Z,25.90
2023-03-05T20:38:47.538Z,26.00
2023-03-05T20:41:18.564Z,25.90
2023-03-05T20:43:48.923Z,26.10
2023-03-05T20:46:19.807Z,26.30
2023-03-05T20:48:51.764Z,26.30
2023-03-05T20:51:22.742Z,26.00
2023-03-05T20:53:51.449Z,26.20
2023-03-05T20:56:19.532Z,25.40
2023-03-05T20:58:47.593Z,25.40
2023-03-05T21:01:15.836Z,26.00
2023-03-05T21:03:43.858Z,25.90
2023-03-05T21:06:13.143Z,26.00
2023-03-05T21:08:41.162Z,26.40
2023-03-05T21:11:10.344Z,25.90
2023-03-05T21:13:38.873Z,26.20
2023-03-05T21:16:09.239Z,26.00
2023-03-05T21:18:37.392Z,26.10
2023-03-05T21:21:06.258Z,26.00
2023-03-05T21:23:35.863Z,26.20
2023-03-05T21:26:04.910Z,26.10
2023-03-05T21:28:33.368Z,26.20
2023-03-05T21:31:09.028Z,26.20
2023-03-05T21:33:37.811Z,26.10
2023-03-05T21:36:07.627Z,26.20
2023-03-05T21:38:37.155Z,26.00
2023-03-05T21:41:06.118Z,26.30
2023-03-05T21:43:35.003Z,26.00
2023-03-05T21:46:04.438Z,26.00
2023-03-05T21:48:33.384Z,26.10
2023-03-05T21:51:01.616Z,26.20
2023-03-05T21:53:30.174Z,26.00
2023-03-05T21:56:34.248Z,26.00
2023-03-05T21:59:03.037Z,26.30
2023-03-05T22:01:31.079Z,26.00
2023-03-05T22:03:59.215Z,26.20
2023-03-05T22:06:27.353Z,26.20
2023-03-05T22:08:55.290Z,26.00
2023-03-05T22:11:24.625Z,26.10
2023-03-05T22:13:52.641Z,26.10
2023-03-05T22:16:24.961Z,26.00
2023-03-05T22:18:53.761Z,26.20
2023-03-05T22:21:25.612Z,26.00
2023-03-05T22:23:54.332Z,26.20
2023-03-05T22:26:24.017Z,25.90
2023-03-05T22:28:52.888Z,26.20
2023-03-05T22:31:22.645Z,26.20
2023-03-05T22:33:51.296Z,26.10
2023-03-05T22:36:19.634Z,26.20
2023-03-05T22:38:48.260Z,26.20
2023-03-05T22:41:19.563Z,26.00
2023-03-05T22:43:50.385Z,26.00
2023-03-05T22:46:22.192Z,26.00
2023-03-05T22:48:50.965Z,26.20
2023-03-05T22:51:20.100Z,25.60
2023-03-05T22:53:48.373Z,26.20
2023-03-05T22:56:19.904Z,26.10
2023-03-05T22:58:49.758Z,26.00
2023-03-05T23:01:20.597Z,26.10
2023-03-05T23:04:53.126Z,26.20
2023-03-05T23:07:25.035Z,25.90
2023-03-05T23:09:55.014Z,25.70
2023-03-05T23:12:25.170Z,26.30
2023-03-05T23:14:54.661Z,26.10
2023-03-05T23:17:22.634Z,26.30
2023-03-05T23:19:50.655Z,26.20
2023-03-05T23:22:18.877Z,26.00
2023-03-05T23:24:46.928Z,26.20
2023-03-05T23:27:17.433Z,26.20
2023-03-05T23:30:20.114Z,26.50
2023-03-05T23:32:52.121Z,26.50
2023-03-05T23:35:24.605Z,26.20
2023-03-05T23:37:53.906Z,26.40
2023-03-05T23:40:24.415Z,26.30
2023-03-05T23:42:53.778Z,26.40
2023-03-05T23:45:24.356Z,26.00
2023-03-05T23:47:53.127Z,26.40
2023-03-05T23:50:24.012Z,26.20
2023-03-05T23:52:53.895Z,26.30
2023-03-05T23:55:24.326Z,26.40
2023-03-05T23:57:53.217Z,26.20
